Carmen, Arizona
Current Conditions -  °F | °C
As of 2:54 PM on Friday 19 Dec 2014 (Local Time) from KOLS Reporting Station
Clear Clear  
Wind Chill: 58°   Ceiling: Unl
Heat Index: 58°   Visibility: 10mi
Dew Point: 34°   Wind: 8mph
Humidity: 41%   Direction: 270°W
Pressure: 30.1"   Gusts: NA
Location:  31.6134°N, 110.959°W
Report Text: KOLS 192154Z AUTO 27007KT 10SM CLR 14/01 A3010 RMK AO2 SLP169 T01440011
Loading
Personal Weather Stations






























Interactive Weather Map New forecast layout! Learn more

10-Day Weather Forecast

Advertisements
Track Severe Weather on mobile